sensor_id;sensor_type;location;lat;lon;timestamp;pressure;altitude;pressure_sealevel;temperature;humidity
71976;BME280;68326;52.124;5.424;2023-05-02T00:00:49;102037.59;;;11.02;92.56
71976;BME280;68326;52.124;5.424;2023-05-02T00:03:15;102032.38;;;11.02;92.45
71976;BME280;68326;52.124;5.424;2023-05-02T00:05:42;102032.34;;;11.04;92.53
71976;BME280;68326;52.124;5.424;2023-05-02T00:08:10;102032.34;;;11.04;92.21
71976;BME280;68326;52.124;5.424;2023-05-02T00:10:37;102030.53;;;11.06;92.62
71976;BME280;68326;52.124;5.424;2023-05-02T00:13:03;102037.47;;;11.07;92.63
71976;BME280;68326;52.124;5.424;2023-05-02T00:15:30;102028.91;;;11.04;91.69
71976;BME280;68326;52.124;5.424;2023-05-02T00:17:56;102032.34;;;11.04;92.18
71976;BME280;68326;52.124;5.424;2023-05-02T00:20:23;102033.94;;;11.08;91.69
71976;BME280;68326;52.124;5.424;2023-05-02T00:22:49;102040.97;;;11.06;91.73
71976;BME280;68326;52.124;5.424;2023-05-02T00:25:16;102037.41;;;11.09;91.42
71976;BME280;68326;52.124;5.424;2023-05-02T00:27:43;102040.00;;;11.09;91.49
71976;BME280;68326;52.124;5.424;2023-05-02T00:30:12;102040.97;;;11.06;91.39
71976;BME280;68326;52.124;5.424;2023-05-02T00:32:39;102036.66;;;11.05;91.56
71976;BME280;68326;52.124;5.424;2023-05-02T00:35:06;102042.59;;;11.09;91.61
71976;BME280;68326;52.124;5.424;2023-05-02T00:37:33;102044.38;;;11.08;92.07
71976;BME280;68326;52.124;5.424;2023-05-02T00:39:59;102043.41;;;11.11;92.50
71976;BME280;68326;52.124;5.424;2023-05-02T00:42:26;102041.66;;;11.11;91.44
71976;BME280;68326;52.124;5.424;2023-05-02T00:44:56;102039.91;;;11.12;91.33
71976;BME280;68326;52.124;5.424;2023-05-02T00:47:23;102035.50;;;11.14;92.46
71976;BME280;68326;52.124;5.424;2023-05-02T00:49:49;102042.34;;;11.16;92.15
71976;BME280;68326;52.124;5.424;2023-05-02T00:52:16;102050.97;;;11.18;92.12
71976;BME280;68326;52.124;5.424;2023-05-02T00:54:43;102053.63;;;11.17;92.86
71976;BME280;68326;52.124;5.424;2023-05-02T00:57:09;102054.59;;;11.14;92.50
71976;BME280;68326;52.124;5.424;2023-05-02T00:59:36;102053.66;;;11.15;93.39
71976;BME280;68326;52.124;5.424;2023-05-02T01:02:10;102065.00;;;11.14;94.03
71976;BME280;68326;52.124;5.424;2023-05-02T01:05:08;102064.97;;;11.16;94.00
71976;BME280;68326;52.124;5.424;2023-05-02T01:08:07;102064.97;;;11.16;93.38
71976;BME280;68326;52.124;5.424;2023-05-02T01:13:33;102067.81;;;11.08;94.38
71976;BME280;68326;52.124;5.424;2023-05-02T01:16:02;102071.22;;;11.10;94.75
71976;BME280;68326;52.124;5.424;2023-05-02T01:18:32;102072.91;;;11.11;95.09
71976;BME280;68326;52.124;5.424;2023-05-02T01:21:02;102069.41;;;11.12;95.69
71976;BME280;68326;52.124;5.424;2023-05-02T01:23:37;102073.72;;;11.13;95.71
71976;BME280;68326;52.124;5.424;2023-05-02T01:26:15;102087.19;;;10.99;93.34
71976;BME280;68326;52.124;5.424;2023-05-02T01:31:18;102082.41;;;10.86;92.92
71976;BME280;68326;52.124;5.424;2023-05-02T01:33:46;102082.41;;;10.86;92.58
71976;BME280;68326;52.124;5.424;2023-05-02T01:36:15;102088.56;;;10.83;92.36
71976;BME280;68326;52.124;5.424;2023-05-02T01:38:42;102091.19;;;10.83;92.25
71976;BME280;68326;52.124;5.424;2023-05-02T01:41:11;102106.00;;;10.81;91.45
71976;BME280;68326;52.124;5.424;2023-05-02T01:43:38;102104.31;;;10.80;90.75
71976;BME280;68326;52.124;5.424;2023-05-02T01:46:08;102099.13;;;10.78;91.16
71976;BME280;68326;52.124;5.424;2023-05-02T01:48:35;102100.97;;;10.75;90.96
71976;BME280;68326;52.124;5.424;2023-05-02T01:51:04;102107.06;;;10.75;90.27
71976;BME280;68326;52.124;5.424;2023-05-02T01:53:33;102123.72;;;10.70;90.33
71976;BME280;68326;52.124;5.424;2023-05-02T01:56:00;102123.78;;;10.67;90.99
71976;BME280;68326;52.124;5.424;2023-05-02T01:58:29;102135.06;;;10.67;91.39
71976;BME280;68326;52.124;5.424;2023-05-02T02:00:58;102124.84;;;10.61;91.61
71976;BME280;68326;52.124;5.424;2023-05-02T02:03:28;102137.19;;;10.54;90.83
71976;BME280;68326;52.124;5.424;2023-05-02T02:05:57;102132.91;;;10.52;90.62
71976;BME280;68326;52.124;5.424;2023-05-02T02:08:24;102139.88;;;10.51;90.79
71976;BME280;68326;52.124;5.424;2023-05-02T02:10:56;102128.56;;;10.52;90.38
71976;BME280;68326;52.124;5.424;2023-05-02T02:13:36;102131.97;;;10.54;90.44
71976;BME280;68326;52.124;5.424;2023-05-02T02:16:06;102133.81;;;10.51;89.52
71976;BME280;68326;52.124;5.424;2023-05-02T02:18:36;102131.25;;;10.49;90.29
71976;BME280;68326;52.124;5.424;2023-05-02T02:21:06;102141.53;;;10.54;89.26
71976;BME280;68326;52.124;5.424;2023-05-02T02:23:35;102139.94;;;10.50;90.06
71976;BME280;68326;52.124;5.424;2023-05-02T02:26:03;102144.41;;;10.45;89.54
71976;BME280;68326;52.124;5.424;2023-05-02T02:28:33;102155.78;;;10.40;89.52
71976;BME280;68326;52.124;5.424;2023-05-02T02:30:59;102154.94;;;10.40;88.79
71976;BME280;68326;52.124;5.424;2023-05-02T02:33:29;102158.41;;;10.40;89.06
71976;BME280;68326;52.124;5.424;2023-05-02T02:42:15;102171.53;;;10.36;87.74
71976;BME280;68326;52.124;5.424;2023-05-02T02:45:01;102177.69;;;10.33;86.64
71976;BME280;68326;52.124;5.424;2023-05-02T02:47:37;102178.53;;;10.34;86.40
71976;BME280;68326;52.124;5.424;2023-05-02T02:50:24;102182.03;;;10.33;86.19
71976;BME280;68326;52.124;5.424;2023-05-02T02:58:28;102179.56;;;10.27;86.65
71976;BME280;68326;52.124;5.424;2023-05-02T03:00:59;102176.97;;;10.27;86.53
71976;BME280;68326;52.124;5.424;2023-05-02T03:03:28;102181.31;;;10.26;85.42
71976;BME280;68326;52.124;5.424;2023-05-02T03:05:56;102188.16;;;10.30;85.23
71976;BME280;68326;52.124;5.424;2023-05-02T03:08:23;102190.75;;;10.30;85.46
71976;BME280;68326;52.124;5.424;2023-05-02T03:10:49;102203.84;;;10.27;86.29
71976;BME280;68326;52.124;5.424;2023-05-02T03:13:16;102202.06;;;10.31;85.94
71976;BME280;68326;52.124;5.424;2023-05-02T03:18:19;102204.59;;;10.32;85.37
71976;BME280;68326;52.124;5.424;2023-05-02T03:20:45;102218.41;;;10.34;85.45
71976;BME280;68326;52.124;5.424;2023-05-02T03:23:12;102212.50;;;10.28;85.75
71976;BME280;68326;52.124;5.424;2023-05-02T03:25:38;102216.09;;;10.22;86.48
71976;BME280;68326;52.124;5.424;2023-05-02T03:28:05;102216.28;;;10.16;85.34
71976;BME280;68326;52.124;5.424;2023-05-02T03:30:31;102221.53;;;10.14;85.20
71976;BME280;68326;52.124;5.424;2023-05-02T03:32:57;102220.69;;;10.14;85.67
71976;BME280;68326;52.124;5.424;2023-05-02T03:35:25;102219.06;;;10.10;85.40
71976;BME280;68326;52.124;5.424;2023-05-02T03:37:52;102231.25;;;10.08;85.92
71976;BME280;68326;52.124;5.424;2023-05-02T03:40:18;102226.91;;;10.07;85.28
71976;BME280;68326;52.124;5.424;2023-05-02T03:42:47;102226.91;;;10.07;85.57
71976;BME280;68326;52.124;5.424;2023-05-02T03:45:13;102236.34;;;10.11;85.70
71976;BME280;68326;52.124;5.424;2023-05-02T03:47:40;102240.66;;;10.12;85.86
71976;BME280;68326;52.124;5.424;2023-05-02T03:50:07;102246.75;;;10.11;85.57
71976;BME280;68326;52.124;5.424;2023-05-02T03:52:33;102246.78;;;10.09;85.74
71976;BME280;68326;52.124;5.424;2023-05-02T03:55:00;102245.97;;;10.07;85.87
71976;BME280;68326;52.124;5.424;2023-05-02T03:57:30;102245.22;;;10.04;85.93
71976;BME280;68326;52.124;5.424;2023-05-02T03:59:56;102249.72;;;9.97;86.51
71976;BME280;68326;52.124;5.424;2023-05-02T04:02:24;102249.88;;;9.91;86.99
71976;BME280;68326;52.124;5.424;2023-05-02T04:04:50;102248.09;;;9.93;87.26
71976;BME280;68326;52.124;5.424;2023-05-02T04:07:17;102260.28;;;9.91;87.74
71976;BME280;68326;52.124;5.424;2023-05-02T04:09:44;102255.91;;;9.91;87.01
71976;BME280;68326;52.124;5.424;2023-05-02T04:12:13;102266.31;;;9.91;86.92
71976;BME280;68326;52.124;5.424;2023-05-02T04:14:40;102267.13;;;9.93;86.44
71976;BME280;68326;52.124;5.424;2023-05-02T04:17:06;102261.97;;;9.92;85.67
71976;BME280;68326;52.124;5.424;2023-05-02T04:19:33;102265.53;;;9.88;85.52
71976;BME280;68326;52.124;5.424;2023-05-02T04:22:01;102268.09;;;9.89;84.78
71976;BME280;68326;52.124;5.424;2023-05-02T04:24:28;102272.44;;;9.90;85.41
71976;BME280;68326;52.124;5.424;2023-05-02T04:26:54;102273.31;;;9.89;84.86
71976;BME280;68326;52.124;5.424;2023-05-02T04:29:21;102278.41;;;9.92;83.20
71976;BME280;68326;52.124;5.424;2023-05-02T04:31:47;102281.06;;;9.91;83.09
71976;BME280;68326;52.124;5.424;2023-05-02T04:34:14;102282.84;;;9.89;82.81
71976;BME280;68326;52.124;5.424;2023-05-02T04:36:41;102291.63;;;9.85;82.87
71976;BME280;68326;52.124;5.424;2023-05-02T04:39:07;102301.16;;;9.84;82.82
71976;BME280;68326;52.124;5.424;2023-05-02T04:41:34;102308.28;;;9.76;83.81
71976;BME280;68326;52.124;5.424;2023-05-02T04:44:01;102310.94;;;9.73;83.41
71976;BME280;68326;52.124;5.424;2023-05-02T04:46:27;102319.78;;;9.66;83.60
71976;BME280;68326;52.124;5.424;2023-05-02T04:48:54;102316.38;;;9.62;83.21
71976;BME280;68326;52.124;5.424;2023-05-02T04:51:20;102322.53;;;9.59;83.34
71976;BME280;68326;52.124;5.424;2023-05-02T04:53:47;102333.00;;;9.56;82.34
71976;BME280;68326;52.124;5.424;2023-05-02T04:56:13;102333.94;;;9.52;81.15
71976;BME280;68326;52.124;5.424;2023-05-02T04:58:40;102340.00;;;9.53;82.08
71976;BME280;68326;52.124;5.424;2023-05-02T05:01:06;102341.63;;;9.57;82.34
71976;BME280;68326;52.124;5.424;2023-05-02T05:03:33;102336.47;;;9.55;81.28
71976;BME280;68326;52.124;5.424;2023-05-02T05:06:00;102341.69;;;9.54;81.64
71976;BME280;68326;52.124;5.424;2023-05-02T05:08:27;102345.94;;;9.58;82.49
71976;BME280;68326;52.124;5.424;2023-05-02T05:10:54;102346.81;;;9.58;80.56
71976;BME280;68326;52.124;5.424;2023-05-02T05:13:20;102356.41;;;9.55;80.44
71976;BME280;68326;52.124;5.424;2023-05-02T05:15:47;102369.44;;;9.52;80.89
71976;BME280;68326;52.124;5.424;2023-05-02T05:18:13;102356.41;;;9.55;80.43
71976;BME280;68326;52.124;5.424;2023-05-02T05:20:40;102361.50;;;9.59;79.88
71976;BME280;68326;52.124;5.424;2023-05-02T05:23:06;102364.94;;;9.62;80.32
71976;BME280;68326;52.124;5.424;2023-05-02T05:25:33;102370.91;;;9.65;80.14
71976;BME280;68326;52.124;5.424;2023-05-02T05:27:59;102380.44;;;9.65;79.81
71976;BME280;68326;52.124;5.424;2023-05-02T05:30:26;102382.16;;;9.66;79.19
71976;BME280;68326;52.124;5.424;2023-05-02T05:32:52;102385.78;;;9.58;78.42
71976;BME280;68326;52.124;5.424;2023-05-02T05:35:19;102387.66;;;9.52;78.57
71976;BME280;68326;52.124;5.424;2023-05-02T05:37:45;102387.81;;;9.44;78.47
71976;BME280;68326;52.124;5.424;2023-05-02T05:40:12;102393.97;;;9.40;78.86
71976;BME280;68326;52.124;5.424;2023-05-02T05:42:38;102397.44;;;9.39;78.88
71976;BME280;68326;52.124;5.424;2023-05-02T05:45:05;102398.34;;;9.38;79.34
71976;BME280;68326;52.124;5.424;2023-05-02T05:47:32;102404.47;;;9.35;78.88
71976;BME280;68326;52.124;5.424;2023-05-02T05:49:59;102415.69;;;9.36;78.69
71976;BME280;68326;52.124;5.424;2023-05-02T05:52:26;102416.50;;;9.39;79.76
71976;BME280;68326;52.124;5.424;2023-05-02T05:54:53;102421.63;;;9.43;78.82
71976;BME280;68326;52.124;5.424;2023-05-02T05:57:23;102429.41;;;9.44;79.20
71976;BME280;68326;52.124;5.424;2023-05-02T05:59:49;102426.63;;;9.52;79.28
71976;BME280;68326;52.124;5.424;2023-05-02T06:02:16;102437.00;;;9.53;78.48
71976;BME280;68326;52.124;5.424;2023-05-02T06:04:43;102433.44;;;9.57;78.75
71976;BME280;68326;52.124;5.424;2023-05-02T06:07:11;102442.06;;;9.59;78.90
71976;BME280;68326;52.124;5.424;2023-05-02T06:09:37;102442.06;;;9.59;77.49
71976;BME280;68326;52.124;5.424;2023-05-02T06:12:04;102443.81;;;9.59;78.18
71976;BME280;68326;52.124;5.424;2023-05-02T06:14:30;102449.06;;;9.56;77.51
71976;BME280;68326;52.124;5.424;2023-05-02T06:16:59;102455.06;;;9.59;78.52
71976;BME280;68326;52.124;5.424;2023-05-02T06:19:26;102458.38;;;9.68;78.10
71976;BME280;68326;52.124;5.424;2023-05-02T06:21:52;102454.69;;;9.78;77.82
71976;BME280;68326;52.124;5.424;2023-05-02T06:24:19;102462.16;;;9.93;78.15
71976;BME280;68326;52.124;5.424;2023-05-02T06:26:45;102463.69;;;10.02;76.58
71976;BME280;68326;52.124;5.424;2023-05-02T06:29:12;102462.88;;;10.00;75.99
71976;BME280;68326;52.124;5.424;2023-05-02T06:31:38;102470.75;;;9.97;75.43
71976;BME280;68326;52.124;5.424;2023-05-02T06:34:05;102481.09;;;10.00;75.02
71976;BME280;68326;52.124;5.424;2023-05-02T06:36:31;102478.44;;;10.03;74.49
71976;BME280;68326;52.124;5.424;2023-05-02T06:38:58;102477.50;;;10.06;73.57
71976;BME280;68326;52.124;5.424;2023-05-02T06:41:24;102484.41;;;10.07;74.18
71976;BME280;68326;52.124;5.424;2023-05-02T06:43:51;102490.44;;;10.07;73.68
71976;BME280;68326;52.124;5.424;2023-05-02T06:46:17;102493.00;;;10.10;73.87
71976;BME280;68326;52.124;5.424;2023-05-02T06:48:46;102498.31;;;10.06;72.88
71976;BME280;68326;52.124;5.424;2023-05-02T06:51:13;102507.06;;;10.02;72.61
71976;BME280;68326;52.124;5.424;2023-05-02T06:53:40;102509.72;;;9.98;73.74
71976;BME280;68326;52.124;5.424;2023-05-02T06:56:06;102516.78;;;9.93;72.76
71976;BME280;68326;52.124;5.424;2023-05-02T06:58:33;102521.16;;;9.91;74.21
71976;BME280;68326;52.124;5.424;2023-05-02T07:00:59;102524.69;;;9.87;71.97
71976;BME280;68326;52.124;5.424;2023-05-02T07:03:26;102530.00;;;9.83;72.95
71976;BME280;68326;52.124;5.424;2023-05-02T07:05:53;102531.78;;;9.79;73.44
71976;BME280;68326;52.124;5.424;2023-05-02T07:08:19;102543.13;;;9.75;73.68
71976;BME280;68326;52.124;5.424;2023-05-02T07:10:47;102543.97;;;9.77;72.78
71976;BME280;68326;52.124;5.424;2023-05-02T07:13:14;102543.13;;;9.75;74.04
71976;BME280;68326;52.124;5.424;2023-05-02T07:15:41;102550.88;;;9.78;74.96
71976;BME280;68326;52.124;5.424;2023-05-02T07:18:08;102552.53;;;9.82;74.72
71976;BME280;68326;52.124;5.424;2023-05-02T07:20:34;102557.66;;;9.85;74.78
71976;BME280;68326;52.124;5.424;2023-05-02T07:23:01;102554.03;;;9.92;75.11
71976;BME280;68326;52.124;5.424;2023-05-02T07:25:27;102565.22;;;9.97;73.65
71976;BME280;68326;52.124;5.424;2023-05-02T07:27:54;102567.13;;;9.89;71.03
71976;BME280;68326;52.124;5.424;2023-05-02T07:30:20;102571.53;;;9.86;71.98
71976;BME280;68326;52.124;5.424;2023-05-02T07:32:46;102571.59;;;9.83;72.24
71976;BME280;68326;52.124;5.424;2023-05-02T07:35:13;102579.47;;;9.78;72.23
71976;BME280;68326;52.124;5.424;2023-05-02T07:37:40;102574.16;;;9.84;73.06
71976;BME280;68326;52.124;5.424;2023-05-02T07:40:07;102573.16;;;9.91;72.60
71976;BME280;68326;52.124;5.424;2023-05-02T07:42:34;102573.91;;;9.96;73.22
71976;BME280;68326;52.124;5.424;2023-05-02T07:45:01;102578.25;;;9.96;71.02
71976;BME280;68326;52.124;5.424;2023-05-02T07:47:28;102583.44;;;9.97;72.62
71976;BME280;68326;52.124;5.424;2023-05-02T07:49:55;102585.84;;;10.07;71.77
71976;BME280;68326;52.124;5.424;2023-05-02T07:52:21;102591.13;;;10.04;71.40
71976;BME280;68326;52.124;5.424;2023-05-02T07:54:48;102593.69;;;10.05;70.95
71976;BME280;68326;52.124;5.424;2023-05-02T07:57:15;102585.75;;;10.11;71.25
71976;BME280;68326;52.124;5.424;2023-05-02T07:59:41;102592.56;;;10.18;71.12
71976;BME280;68326;52.124;5.424;2023-05-02T08:02:07;102598.59;;;10.19;70.93
71976;BME280;68326;52.124;5.424;2023-05-02T08:04:34;102596.75;;;10.24;70.46
71976;BME280;68326;52.124;5.424;2023-05-02T08:07:01;102595.81;;;10.30;70.27
71976;BME280;68326;52.124;5.424;2023-05-02T08:09:28;102598.38;;;10.33;71.18
71976;BME280;68326;52.124;5.424;2023-05-02T08:11:54;102608.81;;;10.28;67.84
71976;BME280;68326;52.124;5.424;2023-05-02T08:14:20;102610.56;;;10.28;70.05
71976;BME280;68326;52.124;5.424;2023-05-02T08:16:47;102614.88;;;10.30;69.11
71976;BME280;68326;52.124;5.424;2023-05-02T08:19:14;102620.28;;;10.19;68.74
71976;BME280;68326;52.124;5.424;2023-05-02T08:21:41;102615.78;;;10.28;69.79
71976;BME280;68326;52.124;5.424;2023-05-02T08:24:07;102624.41;;;10.31;68.60
71976;BME280;68326;52.124;5.424;2023-05-02T08:26:34;102621.72;;;10.34;69.52
71976;BME280;68326;52.124;5.424;2023-05-02T08:29:00;102631.16;;;10.42;68.37
71976;BME280;68326;52.124;5.424;2023-05-02T08:31:28;102622.34;;;10.47;67.06
71976;BME280;68326;52.124;5.424;2023-05-02T08:33:55;102619.72;;;10.49;67.49
71976;BME280;68326;52.124;5.424;2023-05-02T08:36:21;102634.53;;;10.45;66.37
71976;BME280;68326;52.124;5.424;2023-05-02T08:38:48;102635.31;;;10.49;66.32
71976;BME280;68326;52.124;5.424;2023-05-02T08:41:17;102630.00;;;10.55;66.85
71976;BME280;68326;52.124;5.424;2023-05-02T08:43:44;102636.72;;;10.65;67.31
71976;BME280;68326;52.124;5.424;2023-05-02T08:46:13;102643.44;;;10.75;64.65
71976;BME280;68326;52.124;5.424;2023-05-02T08:48:41;102645.97;;;10.78;64.53
71976;BME280;68326;52.124;5.424;2023-05-02T08:51:10;102647.53;;;10.86;64.52
71976;BME280;68326;52.124;5.424;2023-05-02T08:53:38;102655.28;;;10.89;63.96
71976;BME280;68326;52.124;5.424;2023-05-02T08:56:09;102654.25;;;10.96;63.20
71976;BME280;68326;52.124;5.424;2023-05-02T08:58:37;102656.81;;;10.97;61.88
71976;BME280;68326;52.124;5.424;2023-05-02T09:01:15;102652.88;;;11.18;62.69
71976;BME280;68326;52.124;5.424;2023-05-02T09:03:43;102659.06;;;11.13;61.88
71976;BME280;68326;52.124;5.424;2023-05-02T09:06:21;102658.06;;;11.18;62.10
71976;BME280;68326;52.124;5.424;2023-05-02T09:08:49;102663.97;;;11.27;61.25
71976;BME280;68326;52.124;5.424;2023-05-02T09:11:18;102657.53;;;11.41;59.98
71976;BME280;68326;52.124;5.424;2023-05-02T09:13:48;102659.09;;;11.47;57.30
71976;BME280;68326;52.124;5.424;2023-05-02T09:16:20;102664.22;;;11.52;59.46
71976;BME280;68326;52.124;5.424;2023-05-02T09:18:56;102661.66;;;11.50;58.23
71976;BME280;68326;52.124;5.424;2023-05-02T09:21:24;102667.06;;;11.41;57.90
71976;BME280;68326;52.124;5.424;2023-05-02T09:23:53;102671.31;;;11.45;57.69
71976;BME280;68326;52.124;5.424;2023-05-02T09:28:55;102670.56;;;11.41;56.71
71976;BME280;68326;52.124;5.424;2023-05-02T09:31:22;102677.47;;;11.42;56.93
71976;BME280;68326;52.124;5.424;2023-05-02T09:34:15;102673.22;;;11.38;56.68
71976;BME280;68326;52.124;5.424;2023-05-02T09:36:44;102683.38;;;11.49;56.76
71976;BME280;68326;52.124;5.424;2023-05-02T09:39:15;102691.84;;;11.59;55.48
71976;BME280;68326;52.124;5.424;2023-05-02T09:41:46;102688.88;;;11.73;55.28
71976;BME280;68326;52.124;5.424;2023-05-02T09:44:14;102688.53;;;11.87;54.48
71976;BME280;68326;52.124;5.424;2023-05-02T09:47:04;102694.72;;;12.17;55.09
71976;BME280;68326;52.124;5.424;2023-05-02T09:49:43;102694.81;;;12.14;54.00
71976;BME280;68326;52.124;5.424;2023-05-02T09:52:18;102690.09;;;11.95;54.85
71976;BME280;68326;52.124;5.424;2023-05-02T09:54:46;102700.28;;;12.36;54.58
71976;BME280;68326;52.124;5.424;2023-05-02T09:57:15;102703.81;;;12.35;53.08
71976;BME280;68326;52.124;5.424;2023-05-02T09:59:55;102698.47;;;12.39;53.27
71976;BME280;68326;52.124;5.424;2023-05-02T10:02:23;102699.16;;;12.44;51.24
71976;BME280;68326;52.124;5.424;2023-05-02T10:04:52;102704.16;;;12.54;51.76
71976;BME280;68326;52.124;5.424;2023-05-02T10:07:19;102686.41;;;12.93;51.02
71976;BME280;68326;52.124;5.424;2023-05-02T10:09:48;102694.16;;;13.24;51.65
71976;BME280;68326;52.124;5.424;2023-05-02T10:12:17;102694.25;;;13.21;49.84
71976;BME280;68326;52.124;5.424;2023-05-02T10:14:48;102699.50;;;12.93;50.09
71976;BME280;68326;52.124;5.424;2023-05-02T10:17:22;102698.50;;;12.68;50.04
71976;BME280;68326;52.124;5.424;2023-05-02T10:19:56;102707.66;;;12.82;50.95
71976;BME280;68326;52.124;5.424;2023-05-02T10:22:25;102710.88;;;13.19;51.90
71976;BME280;68326;52.124;5.424;2023-05-02T10:24:52;102714.03;;;13.02;51.10
71976;BME280;68326;52.124;5.424;2023-05-02T10:27:20;102715.09;;;12.67;50.71
71976;BME280;68326;52.124;5.424;2023-05-02T10:29:47;102722.78;;;13.01;51.08
71976;BME280;68326;52.124;5.424;2023-05-02T10:32:17;102718.94;;;13.68;50.66
71976;BME280;68326;52.124;5.424;2023-05-02T10:34:45;102719.78;;;13.95;49.81
71976;BME280;68326;52.124;5.424;2023-05-02T10:37:11;102729.72;;;13.58;49.01
71976;BME280;68326;52.124;5.424;2023-05-02T10:39:38;102732.94;;;13.10;50.48
71976;BME280;68326;52.124;5.424;2023-05-02T10:42:05;102729.31;;;13.16;49.95
71976;BME280;68326;52.124;5.424;2023-05-02T10:44:37;102730.44;;;13.37;48.37
71976;BME280;68326;52.124;5.424;2023-05-02T10:47:23;102726.22;;;13.31;49.75
71976;BME280;68326;52.124;5.424;2023-05-02T10:52:25;102724.63;;;13.80;49.60
71976;BME280;68326;52.124;5.424;2023-05-02T10:55:16;102722.97;;;13.78;48.63
71976;BME280;68326;52.124;5.424;2023-05-02T11:00:32;102724.81;;;14.01;48.98
71976;BME280;68326;52.124;5.424;2023-05-02T11:03:00;102730.19;;;13.43;48.00
71976;BME280;68326;52.124;5.424;2023-05-02T11:05:27;102725.31;;;13.32;49.65
71976;BME280;68326;52.124;5.424;2023-05-02T11:10:46;102741.19;;;14.31;47.20
71976;BME280;68326;52.124;5.424;2023-05-02T11:13:12;102732.06;;;13.93;46.19
71976;BME280;68326;52.124;5.424;2023-05-02T11:18:06;102728.22;;;14.03;48.44
71976;BME280;68326;52.124;5.424;2023-05-02T11:20:34;102737.03;;;13.75;48.16
71976;BME280;68326;52.124;5.424;2023-05-02T11:25:54;102736.25;;;13.72;48.04
71976;BME280;68326;52.124;5.424;2023-05-02T11:30:59;102740.31;;;13.80;46.95
71976;BME280;68326;52.124;5.424;2023-05-02T11:33:27;102744.44;;;14.13;47.87
71976;BME280;68326;52.124;5.424;2023-05-02T11:35:55;102748.31;;;14.27;46.92
71976;BME280;68326;52.124;5.424;2023-05-02T11:38:25;102747.13;;;14.36;46.87
71976;BME280;68326;52.124;5.424;2023-05-02T11:40:57;102745.78;;;14.50;48.09
71976;BME280;68326;52.124;5.424;2023-05-02T11:43:26;102745.13;;;14.68;46.73
71976;BME280;68326;52.124;5.424;2023-05-02T11:45:57;102744.22;;;14.44;48.05
71976;BME280;68326;52.124;5.424;2023-05-02T11:48:25;102742.03;;;14.32;46.09
71976;BME280;68326;52.124;5.424;2023-05-02T11:50:56;102747.19;;;14.35;48.49
71976;BME280;68326;52.124;5.424;2023-05-02T11:53:25;102746.72;;;14.47;48.39
71976;BME280;68326;52.124;5.424;2023-05-02T11:55:54;102753.28;;;14.10;46.99
71976;BME280;68326;52.124;5.424;2023-05-02T11:58:22;102753.88;;;13.66;48.21
71976;BME280;68326;52.124;5.424;2023-05-02T12:00:50;102759.66;;;13.76;50.12
71976;BME280;68326;52.124;5.424;2023-05-02T12:03:28;102752.59;;;14.05;47.08
71976;BME280;68326;52.124;5.424;2023-05-02T12:05:57;102769.03;;;13.83;50.00
71976;BME280;68326;52.124;5.424;2023-05-02T12:08:33;102772.44;;;14.11;48.03
71976;BME280;68326;52.124;5.424;2023-05-02T12:10:59;102767.13;;;14.14;47.24
71976;BME280;68326;52.124;5.424;2023-05-02T12:13:26;102767.97;;;14.14;47.03
71976;BME280;68326;52.124;5.424;2023-05-02T12:15:53;102777.91;;;14.30;48.56
71976;BME280;68326;52.124;5.424;2023-05-02T12:18:21;102781.31;;;14.06;47.33
71976;BME280;68326;52.124;5.424;2023-05-02T12:20:50;102791.94;;;13.49;47.52
71976;BME280;68326;52.124;5.424;2023-05-02T12:23:19;102799.00;;;13.15;48.29
71976;BME280;68326;52.124;5.424;2023-05-02T12:25:46;102797.41;;;13.41;49.41
71976;BME280;68326;52.124;5.424;2023-05-02T12:28:17;102785.78;;;13.78;48.23
71976;BME280;68326;52.124;5.424;2023-05-02T12:30:46;102787.69;;;13.99;48.44
71976;BME280;68326;52.124;5.424;2023-05-02T12:33:13;102791.06;;;14.03;49.73
71976;BME280;68326;52.124;5.424;2023-05-02T12:35:40;102797.81;;;14.08;47.01
71976;BME280;68326;52.124;5.424;2023-05-02T12:38:08;102795.66;;;14.21;46.65
71976;BME280;68326;52.124;5.424;2023-05-02T12:40:35;102792.13;;;14.22;45.05
71976;BME280;68326;52.124;5.424;2023-05-02T12:43:03;102805.19;;;14.24;47.88
71976;BME280;68326;52.124;5.424;2023-05-02T12:45:32;102801.22;;;14.12;46.85
71976;BME280;68326;52.124;5.424;2023-05-02T12:48:00;102809.22;;;14.07;46.24
71976;BME280;68326;52.124;5.424;2023-05-02T12:50:37;102811.31;;;14.23;46.67
71976;BME280;68326;52.124;5.424;2023-05-02T12:53:04;102805.09;;;14.25;45.72
71976;BME280;68326;52.124;5.424;2023-05-02T12:55:31;102810.06;;;14.35;45.68
71976;BME280;68326;52.124;5.424;2023-05-02T12:58:02;102819.81;;;14.30;46.70
71976;BME280;68326;52.124;5.424;2023-05-02T13:00:30;102825.78;;;14.08;47.21
71976;BME280;68326;52.124;5.424;2023-05-02T13:02:57;102815.22;;;13.84;47.49
71976;BME280;68326;52.124;5.424;2023-05-02T13:05:24;102817.44;;;13.97;47.40
71976;BME280;68326;52.124;5.424;2023-05-02T13:07:51;102815.53;;;14.00;47.79
71976;BME280;68326;52.124;5.424;2023-05-02T13:10:18;102810.38;;;13.99;44.26
71976;BME280;68326;52.124;5.424;2023-05-02T13:12:45;102809.81;;;13.89;45.85
71976;BME280;68326;52.124;5.424;2023-05-02T13:15:12;102803.06;;;14.08;47.91
71976;BME280;68326;52.124;5.424;2023-05-02T13:17:39;102810.56;;;14.19;45.50
71976;BME280;68326;52.124;5.424;2023-05-02T13:20:07;102810.56;;;14.19;48.27
71976;BME280;68326;52.124;5.424;2023-05-02T13:22:35;102813.34;;;14.15;45.29
71976;BME280;68326;52.124;5.424;2023-05-02T13:25:05;102819.53;;;14.12;47.73
71976;BME280;68326;52.124;5.424;2023-05-02T13:27:32;102819.53;;;13.85;45.10
71976;BME280;68326;52.124;5.424;2023-05-02T13:30:00;102816.03;;;13.86;46.10
71976;BME280;68326;52.124;5.424;2023-05-02T13:32:34;102816.03;;;14.13;47.41
71976;BME280;68326;52.124;5.424;2023-05-02T13:35:01;102817.34;;;14.25;48.96
71976;BME280;68326;52.124;5.424;2023-05-02T13:37:29;102816.03;;;14.13;47.26